createdAt,value
2023-05-14T00:05:22.861Z,94.6683
2023-05-14T00:06:23.772Z,94.7253
2023-05-14T00:07:24.662Z,94.7767
2023-05-14T00:08:25.549Z,94.7938
2023-05-14T00:09:26.401Z,94.4363
2023-05-14T00:10:27.265Z,94.4371
2023-05-14T00:11:28.127Z,94.5767
2023-05-14T00:12:29.037Z,94.8478
2023-05-14T00:13:29.927Z,95.0960
2023-05-14T00:14:30.764Z,94.9501
2023-05-14T00:15:33.622Z,94.7608
2023-05-14T00:16:32.436Z,94.5977
2023-05-14T00:17:34.390Z,94.6872
2023-05-14T00:18:36.221Z,94.7000
2023-05-14T00:19:41.105Z,94.6805
2023-05-14T00:21:41.372Z,94.8047
2023-05-14T00:22:43.924Z,94.8402
2023-05-14T00:23:44.799Z,94.8685
2023-05-14T00:24:46.294Z,94.8449
2023-05-14T00:25:47.973Z,94.5931
2023-05-14T00:26:48.871Z,94.4427
2023-05-14T00:27:50.371Z,94.5272
2023-05-14T00:28:51.905Z,94.6409
2023-05-14T00:29:53.236Z,94.7267
2023-05-14T00:30:54.750Z,94.7688
2023-05-14T00:31:55.664Z,94.9661
2023-05-14T00:32:56.581Z,95.0399
2023-05-14T00:33:58.075Z,95.0487
2023-05-14T00:34:59.562Z,95.0646
2023-05-14T00:36:00.441Z,95.0424
2023-05-14T00:37:01.364Z,95.1672
2023-05-14T00:38:02.602Z,95.2531
2023-05-14T00:39:03.484Z,95.1373
2023-05-14T00:40:04.625Z,94.9838
2023-05-14T00:41:05.555Z,94.6071
2023-05-14T00:42:06.488Z,94.5790
2023-05-14T00:43:07.346Z,94.5697
2023-05-14T00:44:08.244Z,94.5836
2023-05-14T00:45:09.087Z,94.6367
2023-05-14T00:46:10.225Z,94.7462
2023-05-14T00:47:11.109Z,94.8286
2023-05-14T00:48:11.962Z,94.7712
2023-05-14T00:49:12.827Z,94.6973
2023-05-14T00:50:13.709Z,94.7996
2023-05-14T00:51:14.581Z,94.8511
2023-05-14T00:52:16.066Z,94.8042
2023-05-14T00:53:17.572Z,94.7745
2023-05-14T00:54:18.455Z,94.9315
2023-05-14T00:55:20.803Z,95.0399
2023-05-14T00:56:22.417Z,94.9939
2023-05-14T00:57:23.306Z,95.0261
2023-05-14T00:58:24.168Z,95.0399
2023-05-14T01:00:26.144Z,94.8388
2023-05-14T01:01:27.133Z,94.7908
2023-05-14T01:02:28.090Z,94.6360
2023-05-14T01:03:30.080Z,94.5963
2023-05-14T01:04:31.035Z,94.6223
2023-05-14T01:05:31.924Z,94.6091
2023-05-14T01:06:33.754Z,94.4680
2023-05-14T01:07:34.650Z,94.4973
2023-05-14T01:08:36.162Z,94.4140
2023-05-14T01:09:37.053Z,94.3654
2023-05-14T01:10:37.967Z,94.3024
2023-05-14T01:11:39.429Z,94.2826
2023-05-14T01:12:40.331Z,94.3856
2023-05-14T01:13:41.245Z,94.5037
2023-05-14T01:14:42.181Z,94.6340
2023-05-14T01:15:43.387Z,94.7433
2023-05-14T01:16:44.292Z,94.8145
2023-05-14T01:17:46.021Z,94.7530
2023-05-14T01:18:47.678Z,94.8228
2023-05-14T01:19:48.597Z,94.5711
2023-05-14T01:20:50.137Z,94.4046
2023-05-14T01:21:51.108Z,94.2686
2023-05-14T01:22:51.992Z,94.2653
2023-05-14T01:23:52.930Z,94.1288
2023-05-14T01:24:54.904Z,93.9426
2023-05-14T01:25:55.844Z,93.9475
2023-05-14T01:26:57.316Z,94.0128
2023-05-14T01:27:58.841Z,94.1165
2023-05-14T01:29:00.499Z,94.0900
2023-05-14T01:30:01.396Z,94.3148
2023-05-14T01:31:03.160Z,94.4497
2023-05-14T01:32:04.896Z,94.4653
2023-05-14T01:33:06.006Z,94.4589
2023-05-14T01:34:07.831Z,94.2094
2023-05-14T01:35:09.395Z,94.1001
2023-05-14T01:36:10.293Z,94.0523
2023-05-14T01:37:11.217Z,93.9700
2023-05-14T01:38:12.152Z,94.0142
2023-05-14T01:39:13.100Z,94.0021
2023-05-14T01:41:14.809Z,94.1984
2023-05-14T01:42:15.759Z,94.4201
2023-05-14T01:43:16.720Z,94.4970
2023-05-14T01:44:17.675Z,94.6394
2023-05-14T01:45:18.609Z,94.7447
2023-05-14T01:46:19.785Z,94.4947
2023-05-14T01:47:20.762Z,94.3380
2023-05-14T01:48:21.744Z,94.4318
2023-05-14T01:49:22.706Z,94.5206
2023-05-14T01:50:23.740Z,94.6792
2023-05-14T01:51:24.725Z,94.5795
2023-05-14T01:52:25.630Z,94.6125
2023-05-14T01:53:26.549Z,94.5721
2023-05-14T01:54:27.457Z,94.6852
2023-05-14T01:55:28.553Z,94.7872
2023-05-14T01:56:29.536Z,94.8294
2023-05-14T01:57:30.428Z,94.7481
2023-05-14T01:59:32.096Z,94.6565
2023-05-14T02:00:33.027Z,94.8507
2023-05-14T02:01:34.449Z,95.0340
2023-05-14T02:02:35.452Z,95.0960
2023-05-14T02:03:36.416Z,95.1131
2023-05-14T02:04:37.354Z,94.9350
2023-05-14T02:05:38.278Z,94.9844
2023-05-14T02:06:39.204Z,95.1451
2023-05-14T02:07:40.121Z,95.1536
2023-05-14T02:08:41.109Z,95.3399
2023-05-14T02:09:42.012Z,95.5313
2023-05-14T02:10:42.972Z,95.5382
2023-05-14T02:11:43.923Z,95.4128
2023-05-14T02:12:45.009Z,95.3337
2023-05-14T02:13:45.906Z,95.1734
2023-05-14T02:14:46.861Z,95.2297
2023-05-14T02:15:47.819Z,95.3361
2023-05-14T02:16:48.743Z,95.3937
2023-05-14T02:17:49.697Z,95.3366
2023-05-14T02:18:50.704Z,95.4069
2023-05-14T02:19:51.672Z,95.3746
2023-05-14T02:20:52.615Z,95.4084
2023-05-14T02:21:53.537Z,95.4251
2023-05-14T02:22:54.497Z,95.1986
2023-05-14T02:23:55.432Z,95.2015
2023-05-14T02:24:56.362Z,95.1605
2023-05-14T02:25:57.486Z,95.1524
2023-05-14T02:27:00.196Z,95.2335
2023-05-14T02:28:01.081Z,95.2409
2023-05-14T02:29:02.249Z,95.3543
2023-05-14T02:30:03.137Z,95.4773
2023-05-14T02:31:04.096Z,95.2840
2023-05-14T02:32:05.772Z,95.1422
2023-05-14T02:33:07.456Z,95.1551
2023-05-14T02:34:09.029Z,95.1096
2023-05-14T02:35:10.327Z,94.9541
2023-05-14T02:36:11.870Z,94.9626
2023-05-14T02:37:13.412Z,94.9623
2023-05-14T02:39:15.789Z,94.9769
2023-05-14T02:40:16.720Z,95.0872
2023-05-14T02:41:18.323Z,95.2423
2023-05-14T02:42:19.323Z,95.4319
2023-05-14T02:43:20.282Z,95.5944
2023-05-14T02:52:27.987Z,96.1250
2023-05-14T02:53:28.933Z,96.1452
2023-05-14T02:54:29.860Z,96.1684
2023-05-14T02:55:30.829Z,96.1597
2023-05-14T02:56:31.764Z,96.1968
2023-05-14T02:58:34.808Z,96.3462
2023-05-14T02:59:35.956Z,96.3719
2023-05-14T03:00:37.126Z,96.3909
2023-05-14T03:01:38.658Z,96.4169
2023-05-14T03:07:43.740Z,96.5822
2023-05-14T03:08:44.654Z,96.5983
2023-05-14T03:12:49.137Z,96.5098
2023-05-14T03:13:50.076Z,96.4886
2023-05-14T03:14:51.123Z,96.4747
2023-05-14T03:15:52.643Z,96.4080
2023-05-14T03:16:53.798Z,96.3803
2023-05-14T03:17:54.763Z,96.3987
2023-05-14T03:18:55.952Z,96.4141
2023-05-14T03:19:56.867Z,96.4136
2023-05-14T03:21:59.511Z,96.3765
2023-05-14T03:23:00.453Z,96.3678
2023-05-14T03:24:01.372Z,96.4144
2023-05-14T03:25:03.401Z,96.4069
2023-05-14T03:26:04.541Z,96.4352
2023-05-14T03:27:05.482Z,96.5066
2023-05-14T03:28:06.467Z,96.5177
2023-05-14T03:29:07.405Z,96.5655
2023-05-14T03:30:08.379Z,96.6400
2023-05-14T03:31:09.351Z,96.6634
2023-05-14T03:32:10.266Z,96.6777
2023-05-14T03:33:11.175Z,96.6992
2023-05-14T03:34:12.159Z,96.7605
2023-05-14T03:35:13.082Z,96.8433
2023-05-14T03:36:14.036Z,96.8638
2023-05-14T03:37:14.936Z,96.9308
2023-05-14T03:38:15.922Z,96.9730
2023-05-14T03:39:16.839Z,96.9893
2023-05-14T03:40:17.782Z,97.0318
2023-05-14T03:42:19.540Z,97.1009
2023-05-14T03:43:20.532Z,97.1381
2023-05-14T03:44:21.464Z,97.1769
2023-05-14T03:45:22.415Z,97.2261
2023-05-14T03:46:23.598Z,97.2681
2023-05-14T03:47:24.500Z,97.3099
2023-05-14T03:48:25.560Z,97.3428
2023-05-14T03:49:26.610Z,97.3640
2023-05-14T03:50:27.619Z,97.4007
2023-05-14T03:51:28.554Z,97.4343
2023-05-14T03:52:29.761Z,97.4456
2023-05-14T03:53:30.717Z,97.4730
2023-05-14T03:54:32.881Z,97.4778
2023-05-14T03:55:34.452Z,97.4982
2023-05-14T03:56:36.070Z,97.5241
2023-05-14T03:57:37.037Z,97.5359
2023-05-14T03:58:38.567Z,97.5643
2023-05-14T03:59:40.135Z,97.5852
2023-05-14T04:00:41.086Z,97.6027
2023-05-14T04:01:43.403Z,97.6242
2023-05-14T04:02:44.785Z,97.6452
2023-05-14T04:03:46.182Z,97.6396
2023-05-14T04:05:48.110Z,97.6481
2023-05-14T04:06:49.021Z,97.6447
2023-05-14T04:09:51.815Z,97.5859
2023-05-14T04:13:55.688Z,97.5080
2023-05-14T04:14:56.655Z,97.5055
2023-05-14T04:15:57.641Z,97.4967
2023-05-14T04:17:00.104Z,97.4310
2023-05-14T04:18:01.236Z,97.3715
2023-05-14T04:19:02.271Z,97.3412
2023-05-14T04:20:03.982Z,97.2901
2023-05-14T04:22:06.691Z,97.0954
2023-05-14T04:23:08.212Z,97.0227
2023-05-14T04:25:10.623Z,96.9471
2023-05-14T04:26:11.556Z,96.9066
2023-05-14T04:27:12.560Z,96.8474
2023-05-14T04:28:14.733Z,96.7430
2023-05-14T04:29:16.283Z,96.5757
2023-05-14T04:30:17.828Z,96.5022
2023-05-14T04:31:18.853Z,96.3844
2023-05-14T04:32:20.458Z,96.2849
2023-05-14T04:33:22.049Z,96.2205
2023-05-14T04:34:22.963Z,96.0514
2023-05-14T04:35:25.258Z,96.0136
2023-05-14T04:36:26.896Z,96.0080
2023-05-14T04:37:27.850Z,95.9008
2023-05-14T04:38:29.432Z,95.6766
2023-05-14T04:39:30.333Z,95.5804
2023-05-14T04:40:31.220Z,95.6651
2023-05-14T04:41:32.932Z,95.5476
2023-05-14T04:42:34.480Z,95.4072
2023-05-14T04:43:35.977Z,95.4601
2023-05-14T04:44:36.884Z,95.1042
2023-05-14T04:45:38.430Z,95.0082
2023-05-14T04:46:39.407Z,94.6893
2023-05-14T04:47:40.389Z,94.4416
2023-05-14T04:48:41.669Z,94.5594
2023-05-14T04:49:43.182Z,94.3883
2023-05-14T04:50:45.227Z,93.9502
2023-05-14T04:51:46.157Z,93.4481
2023-05-14T04:52:47.101Z,93.6202
2023-05-14T04:53:48.005Z,93.7270
2023-05-14T04:54:48.967Z,93.8177
2023-05-14T04:55:49.886Z,93.7320
2023-05-14T04:56:50.812Z,93.7324
2023-05-14T04:57:51.728Z,93.6508
2023-05-14T04:58:52.663Z,93.4917
2023-05-14T04:59:53.575Z,93.2196
2023-05-14T05:00:54.512Z,93.1279
2023-05-14T05:01:55.454Z,93.0679
2023-05-14T05:02:56.405Z,92.9865
2023-05-14T05:03:57.315Z,92.8984
2023-05-14T05:04:58.260Z,92.7549
2023-05-14T05:05:59.200Z,92.4273
2023-05-14T05:07:00.130Z,92.0492
2023-05-14T05:08:01.046Z,91.8340
2023-05-14T05:09:02.239Z,91.3154
2023-05-14T05:10:03.328Z,91.1145
2023-05-14T05:11:04.914Z,91.5092
2023-05-14T05:12:06.642Z,91.6268
2023-05-14T05:13:08.211Z,91.1029
2023-05-14T05:14:09.225Z,90.6004
2023-05-14T05:15:10.831Z,90.6370
2023-05-14T05:16:12.409Z,90.8817
2023-05-14T05:17:14.430Z,91.5219
2023-05-14T05:18:15.894Z,91.2195
2023-05-14T05:19:16.992Z,90.8695
2023-05-14T05:20:18.520Z,90.7341
2023-05-14T05:21:20.335Z,90.6156
2023-05-14T05:22:21.240Z,90.8915
2023-05-14T05:23:22.131Z,90.2543
2023-05-14T05:24:23.075Z,90.0933
2023-05-14T05:25:24.009Z,90.3624
2023-05-14T05:26:24.928Z,90.3208
2023-05-14T05:27:25.845Z,89.5445
2023-05-14T05:28:26.834Z,89.2928
2023-05-14T05:29:27.729Z,88.7884
2023-05-14T05:30:28.676Z,88.9767
2023-05-14T05:31:30.780Z,89.6985
2023-05-14T05:32:31.792Z,89.8065
2023-05-14T05:33:33.329Z,88.6716
2023-05-14T05:34:34.979Z,88.5641
2023-05-14T05:36:37.331Z,88.5436
2023-05-14T05:37:38.891Z,88.6942
2023-05-14T05:38:39.793Z,88.7132
2023-05-14T05:39:40.757Z,88.6422
2023-05-14T05:40:42.246Z,89.1372
2023-05-14T05:41:43.167Z,88.9549
2023-05-14T05:42:44.115Z,89.2392
2023-05-14T05:43:45.656Z,88.5776
2023-05-14T05:44:47.193Z,88.2213
2023-05-14T05:45:48.147Z,87.9665
2023-05-14T05:47:49.856Z,88.9432
2023-05-14T05:48:50.764Z,88.3014
2023-05-14T05:50:53.333Z,87.3206
2023-05-14T05:51:54.244Z,87.5925
2023-05-14T05:52:55.160Z,87.2138
2023-05-14T05:54:57.309Z,86.8121
2023-05-14T05:55:58.230Z,87.1371
2023-05-14T05:56:59.107Z,86.7155
2023-05-14T05:59:01.789Z,84.5981
2023-05-14T06:00:03.973Z,85.0974
2023-05-14T06:01:04.873Z,85.7452
2023-05-14T06:02:05.808Z,86.0219
2023-05-14T06:03:06.746Z,86.5202
2023-05-14T06:04:07.666Z,86.6499
2023-05-14T06:05:08.595Z,86.3650
2023-05-14T06:06:09.547Z,86.8114
2023-05-14T06:07:10.587Z,86.2622
2023-05-14T06:08:11.740Z,87.4914
2023-05-14T06:09:12.661Z,87.6940
2023-05-14T06:10:13.600Z,88.3424
2023-05-14T06:11:15.107Z,88.7989
2023-05-14T06:12:16.637Z,89.2784
2023-05-14T06:13:18.530Z,89.5645
2023-05-14T06:14:19.444Z,89.1590
2023-05-14T06:16:21.282Z,90.2502
2023-05-14T06:17:22.294Z,90.2182
2023-05-14T06:19:24.604Z,90.2881
2023-05-14T06:20:26.146Z,89.9021
2023-05-14T06:21:27.169Z,89.7905
2023-05-14T06:22:28.684Z,89.4817
2023-05-14T06:23:30.236Z,89.7560
2023-05-14T06:24:31.816Z,89.6346
2023-05-14T06:25:33.813Z,90.1189
2023-05-14T06:26:34.694Z,90.2427
2023-05-14T06:27:36.250Z,90.0569
2023-05-14T06:28:37.703Z,90.3671
2023-05-14T06:29:38.590Z,90.6392
2023-05-14T06:30:39.481Z,90.6749
2023-05-14T06:31:41.104Z,90.4237
2023-05-14T06:32:42.672Z,90.3324
2023-05-14T06:33:43.575Z,90.4277
2023-05-14T06:34:45.142Z,90.2810
2023-05-14T06:35:46.673Z,89.8137
2023-05-14T06:36:47.596Z,89.7905
2023-05-14T06:37:48.477Z,89.4712
2023-05-14T06:38:50.238Z,89.5742
2023-05-14T06:39:51.158Z,89.4561
2023-05-14T06:40:52.118Z,89.2524
2023-05-14T06:41:53.745Z,89.3265
2023-05-14T06:42:54.700Z,89.9455
2023-05-14T06:43:54.997Z,89.6758
2023-05-14T06:45:01.527Z,89.7618
2023-05-14T06:46:02.527Z,89.2156
2023-05-14T06:51:06.807Z,89.9532
2023-05-14T06:52:24.528Z,89.0518
2023-05-14T06:53:08.921Z,89.8348
2023-05-14T06:54:09.890Z,89.9463
2023-05-14T06:55:10.818Z,90.5110
2023-05-14T06:56:12.060Z,89.7339
2023-05-14T06:57:13.718Z,89.4328
2023-05-14T06:58:14.666Z,89.6641
2023-05-14T06:59:16.214Z,89.8809
2023-05-14T07:00:17.827Z,90.1995
2023-05-14T07:01:19.857Z,89.8059
2023-05-14T07:03:22.276Z,89.9183
2023-05-14T07:04:23.269Z,89.8485
2023-05-14T07:05:24.228Z,90.0522
2023-05-14T07:07:25.954Z,89.9636
2023-05-14T07:08:26.893Z,89.9822
2023-05-14T07:10:28.883Z,90.7940
2023-05-14T07:11:29.778Z,90.6308
2023-05-14T07:12:30.740Z,91.0357
2023-05-14T07:14:32.507Z,90.4255
2023-05-14T07:15:33.437Z,90.8953
2023-05-14T07:16:34.393Z,91.7477
2023-05-14T07:17:35.450Z,91.7879
2023-05-14T07:18:36.409Z,91.7533
2023-05-14T07:19:37.373Z,91.8861
2023-05-14T07:20:38.344Z,91.8462
2023-05-14T07:21:39.310Z,92.6977
2023-05-14T07:22:40.319Z,92.1530
2023-05-14T07:23:41.282Z,91.9137
2023-05-14T07:24:42.247Z,91.4657
2023-05-14T07:25:43.210Z,91.0797
2023-05-14T07:26:44.190Z,90.9565
2023-05-14T07:27:45.164Z,90.4289
2023-05-14T07:28:46.093Z,90.4457
2023-05-14T07:29:47.015Z,89.9699
2023-05-14T07:30:47.915Z,89.1526
2023-05-14T07:31:49.023Z,88.5966
2023-05-14T07:32:50.012Z,87.0921
2023-05-14T07:33:50.925Z,87.3072
2023-05-14T07:34:51.852Z,88.0590
2023-05-14T07:35:52.791Z,87.3841
2023-05-14T07:36:54.342Z,86.0082
2023-05-14T07:37:55.870Z,86.2884
2023-05-14T07:38:57.117Z,86.0118
2023-05-14T07:39:58.642Z,87.0101
2023-05-14T07:40:59.547Z,87.7037
2023-05-14T07:43:01.952Z,88.6111
2023-05-14T07:44:02.846Z,88.0079
2023-05-14T07:45:03.778Z,87.9051
2023-05-14T07:46:05.228Z,86.9828
2023-05-14T07:47:06.162Z,84.4452
2023-05-14T07:48:07.218Z,83.3131
2023-05-14T07:49:08.426Z,81.2562
2023-05-14T07:50:09.922Z,80.8768
2023-05-14T07:51:10.858Z,79.7870
2023-05-14T07:52:23.275Z,77.9732
2023-05-14T07:56:16.961Z,77.0221
2023-05-14T07:57:17.869Z,75.3428
2023-05-14T07:58:19.419Z,77.4671
2023-05-14T07:59:20.967Z,80.8798
2023-05-14T08:00:22.054Z,78.8131
2023-05-14T08:01:23.784Z,79.9429
2023-05-14T08:02:24.768Z,80.6102
2023-05-14T08:03:42.947Z,81.7341
2023-05-14T08:04:44.487Z,83.4501
2023-05-14T08:05:45.436Z,84.2196
2023-05-14T08:06:46.290Z,80.4289
2023-05-14T08:07:47.806Z,78.0127
2023-05-14T08:08:48.730Z,76.1329
2023-05-14T08:09:50.175Z,79.6746
2023-05-14T08:10:51.152Z,80.3860
2023-05-14T08:11:52.415Z,80.9291
2023-05-14T08:12:53.512Z,78.2929
2023-05-14T08:13:54.392Z,77.4470
2023-05-14T08:14:55.300Z,78.1280
2023-05-14T08:15:56.868Z,78.6038
2023-05-14T08:16:57.798Z,79.9199
2023-05-14T08:17:58.833Z,78.9106
2023-05-14T08:19:00.354Z,81.1463
2023-05-14T08:20:01.829Z,81.1176
2023-05-14T08:21:03.654Z,80.7380
2023-05-14T08:22:05.227Z,78.6519
2023-05-14T08:23:06.151Z,77.8609
2023-05-14T08:24:07.741Z,79.1134
2023-05-14T08:25:09.201Z,77.8677
2023-05-14T08:26:10.206Z,76.3261
2023-05-14T08:27:11.790Z,76.6039
2023-05-14T08:28:35.593Z,79.4284
2023-05-14T08:29:16.126Z,82.3745
2023-05-14T08:30:14.697Z,83.1419
2023-05-14T08:31:15.641Z,82.5004
2023-05-14T08:32:23.347Z,82.6150
2023-05-14T08:34:21.002Z,83.2665
2023-05-14T08:35:28.820Z,81.3714
2023-05-14T08:38:26.449Z,81.8546
2023-05-14T08:39:27.349Z,82.5823
2023-05-14T08:40:28.213Z,81.4881
2023-05-14T08:41:29.123Z,79.7389
2023-05-14T08:42:30.590Z,79.9043
2023-05-14T08:43:31.489Z,79.1463
2023-05-14T08:44:32.352Z,79.0007
2023-05-14T08:45:33.918Z,79.0430
2023-05-14T08:46:34.840Z,80.6314
2023-05-14T08:47:35.771Z,79.8691
2023-05-14T08:48:36.658Z,77.5493
2023-05-14T08:49:37.571Z,78.7161
2023-05-14T08:53:43.801Z,79.7214
2023-05-14T08:54:44.727Z,76.7891
2023-05-14T08:55:45.596Z,75.9523
2023-05-14T08:56:47.192Z,77.0212
2023-05-14T08:57:48.412Z,76.1313
2023-05-14T08:58:50.408Z,78.6372
2023-05-14T08:59:51.263Z,79.3561
2023-05-14T09:00:52.157Z,77.2700
2023-05-14T09:02:05.048Z,71.3590
2023-05-14T09:02:55.391Z,74.6136
2023-05-14T09:03:57.010Z,75.0001
2023-05-14T09:04:57.882Z,75.1524
2023-05-14T09:06:00.196Z,74.5067
2023-05-14T09:07:01.976Z,72.3268
2023-05-14T09:08:03.438Z,72.7063
2023-05-14T09:10:04.986Z,75.7600
2023-05-14T09:11:05.849Z,75.8943
2023-05-14T09:12:07.217Z,73.9804
2023-05-14T09:13:08.404Z,73.5845
2023-05-14T09:14:09.192Z,71.2160
2023-05-14T09:15:10.788Z,74.1020
2023-05-14T09:16:12.429Z,75.2419
2023-05-14T09:17:13.290Z,75.1867
2023-05-14T09:18:14.149Z,75.9767
2023-05-14T09:19:15.137Z,73.1273
2023-05-14T09:20:16.029Z,72.0393
2023-05-14T09:21:16.872Z,73.7692
2023-05-14T09:22:17.683Z,76.2885
2023-05-14T09:23:19.120Z,77.4045
2023-05-14T09:24:19.987Z,77.7222
2023-05-14T09:25:21.445Z,78.1288
2023-05-14T09:26:22.334Z,77.6043
2023-05-14T09:27:23.774Z,77.8180
2023-05-14T09:28:25.319Z,79.2544
2023-05-14T09:29:26.173Z,78.2659
2023-05-14T09:30:27.343Z,78.9709
2023-05-14T09:31:28.312Z,79.5918
2023-05-14T09:32:29.233Z,80.6779
2023-05-14T09:33:30.735Z,81.2256
2023-05-14T09:34:31.628Z,81.0210
2023-05-14T09:35:32.672Z,81.8011
2023-05-14T09:36:34.182Z,81.7577
2023-05-14T09:37:35.366Z,79.7668
2023-05-14T09:38:36.251Z,78.2324
2023-05-14T09:39:37.173Z,79.1281
2023-05-14T09:40:38.059Z,80.8515
2023-05-14T09:41:38.946Z,79.2850
2023-05-14T09:43:41.349Z,76.7304
2023-05-14T09:44:42.224Z,76.6251
2023-05-14T09:46:44.969Z,75.9176
2023-05-14T09:47:47.177Z,76.7109
2023-05-14T09:48:48.241Z,77.8874
2023-05-14T09:49:49.731Z,76.6756
2023-05-14T09:50:50.686Z,76.3317
2023-05-14T09:51:52.513Z,75.1776
2023-05-14T09:52:54.080Z,76.0779
2023-05-14T09:53:54.960Z,77.4439
2023-05-14T09:54:55.838Z,76.9848
2023-05-14T09:55:56.683Z,77.6059
2023-05-14T09:56:57.539Z,76.6816
2023-05-14T10:01:01.158Z,82.0661
2023-05-14T10:02:02.302Z,83.1586
2023-05-14T10:03:03.208Z,82.2507
2023-05-14T10:04:04.116Z,81.7597
2023-05-14T10:05:05.041Z,81.7489
2023-05-14T10:06:05.889Z,79.8339
2023-05-14T10:08:07.475Z,82.9490
2023-05-14T10:09:08.376Z,83.0302
2023-05-14T10:11:10.244Z,80.9271
2023-05-14T10:12:11.113Z,82.2101
2023-05-14T10:13:33.892Z,81.6211
2023-05-14T10:14:16.475Z,80.9499
2023-05-14T10:15:17.394Z,80.4491
2023-05-14T10:16:18.342Z,79.4476
2023-05-14T10:17:19.886Z,80.3027
2023-05-14T10:18:21.409Z,80.5297
2023-05-14T10:19:23.078Z,79.6857
2023-05-14T10:20:24.246Z,78.8773
2023-05-14T10:21:25.376Z,79.9631
2023-05-14T10:22:26.780Z,79.9478
2023-05-14T10:23:27.986Z,78.5135
2023-05-14T10:24:30.996Z,81.1606
2023-05-14T10:25:31.880Z,82.1436
2023-05-14T10:27:34.092Z,79.4069
2023-05-14T10:28:34.951Z,79.0167
2023-05-14T10:29:36.447Z,79.2913
2023-05-14T10:30:37.335Z,80.9587
2023-05-14T10:31:38.255Z,80.6652
2023-05-14T10:32:39.206Z,81.9891
2023-05-14T10:33:40.114Z,82.2442
2023-05-14T10:34:41.007Z,81.8825
2023-05-14T10:35:42.556Z,82.5496
2023-05-14T10:36:43.986Z,81.5560
2023-05-14T10:37:44.962Z,82.6663
2023-05-14T10:38:47.248Z,79.1945
2023-05-14T10:39:48.328Z,80.1367
2023-05-14T10:41:14.275Z,79.9576
2023-05-14T10:41:50.080Z,81.2313
2023-05-14T10:42:50.963Z,79.1432
2023-05-14T10:43:51.854Z,81.0089
2023-05-14T10:45:54.931Z,79.9480
2023-05-14T10:46:56.659Z,81.0537
2023-05-14T10:47:57.459Z,79.3601
2023-05-14T10:48:58.713Z,81.2937
2023-05-14T10:50:00.214Z,77.6712
2023-05-14T10:51:01.157Z,78.0948
2023-05-14T10:52:02.287Z,75.6635
2023-05-14T10:53:03.140Z,74.5209
2023-05-14T10:54:04.070Z,75.7773
2023-05-14T10:55:04.925Z,74.0472
2023-05-14T10:56:06.554Z,75.5245
2023-05-14T10:57:08.052Z,77.2506
2023-05-14T10:59:08.853Z,77.5896
2023-05-14T11:00:11.019Z,76.7607
2023-05-14T11:01:11.909Z,76.4763
2023-05-14T11:03:14.905Z,76.7062
2023-05-14T11:04:16.097Z,76.5881
2023-05-14T11:05:33.375Z,74.9706
2023-05-14T11:06:17.162Z,73.4040
2023-05-14T11:07:18.026Z,74.0202
2023-05-14T11:08:22.378Z,74.8053
2023-05-14T11:11:22.140Z,65.9674
2023-05-14T11:12:23.071Z,65.7529
2023-05-14T11:13:24.706Z,66.3588
2023-05-14T11:14:25.781Z,67.6260
2023-05-14T11:15:27.722Z,66.9957
2023-05-14T11:16:28.822Z,66.8884
2023-05-14T11:17:29.883Z,67.8545
2023-05-14T11:18:30.795Z,67.8634
2023-05-14T11:19:32.435Z,66.7171
2023-05-14T11:20:33.588Z,70.4515
2023-05-14T11:21:35.223Z,71.2599
2023-05-14T11:22:36.532Z,73.5293
2023-05-14T11:23:37.581Z,76.4656
2023-05-14T11:24:38.460Z,77.9112
2023-05-14T11:26:41.675Z,78.6058
2023-05-14T11:27:42.538Z,78.5750
2023-05-14T11:28:43.450Z,78.9131
2023-05-14T11:29:44.354Z,77.5083
2023-05-14T11:30:45.645Z,79.1630
2023-05-14T11:31:46.539Z,79.8103
2023-05-14T11:32:48.041Z,80.2981
2023-05-14T11:37:53.946Z,78.2276
2023-05-14T11:38:55.022Z,78.7671
2023-05-14T11:42:10.542Z,74.7662
2023-05-14T11:44:01.426Z,75.5591
2023-05-14T11:45:03.152Z,76.2669
2023-05-14T11:46:04.124Z,75.3973
2023-05-14T11:47:05.812Z,75.5252
2023-05-14T11:48:06.815Z,73.9435
2023-05-14T11:49:07.741Z,73.7821
2023-05-14T11:50:19.997Z,75.2874
2023-05-14T11:54:16.661Z,75.2161
2023-05-14T11:55:18.202Z,74.2912
2023-05-14T11:56:19.602Z,74.8333
2023-05-14T11:57:20.503Z,75.1861
2023-05-14T11:58:21.485Z,75.0362
2023-05-14T11:59:24.315Z,73.5246
2023-05-14T12:00:23.759Z,72.8524
2023-05-14T12:01:24.839Z,74.9863
2023-05-14T12:02:26.489Z,72.5207
2023-05-14T12:03:28.103Z,71.4629
2023-05-14T12:05:30.508Z,71.6782
2023-05-14T12:06:32.099Z,71.0086
2023-05-14T12:07:33.599Z,71.1880
2023-05-14T12:08:34.592Z,72.1052
2023-05-14T12:09:35.863Z,75.9293
2023-05-14T12:10:36.920Z,76.7041
2023-05-14T12:11:38.233Z,76.0783
2023-05-14T12:12:39.546Z,76.8886
2023-05-14T12:13:40.784Z,76.2719
2023-05-14T12:14:41.851Z,77.1653
2023-05-14T12:15:42.228Z,77.3566
2023-05-14T12:16:43.256Z,78.6255
2023-05-14T12:17:44.911Z,79.7146
2023-05-14T12:18:45.875Z,81.1324
2023-05-14T12:19:47.598Z,82.2121
2023-05-14T12:20:48.539Z,82.3817
2023-05-14T12:21:49.501Z,82.8114
2023-05-14T12:22:50.554Z,83.2000
2023-05-14T12:23:51.491Z,83.6045
2023-05-14T12:24:52.474Z,84.0638
2023-05-14T12:25:53.422Z,84.0587
2023-05-14T12:26:55.259Z,84.2291
2023-05-14T12:27:56.254Z,85.0698
2023-05-14T12:28:57.210Z,84.6655
2023-05-14T12:30:06.289Z,85.2181
2023-05-14T12:31:00.378Z,85.7511
2023-05-14T12:32:01.325Z,85.5868
2023-05-14T12:33:02.344Z,86.1413
2023-05-14T12:34:03.987Z,86.0848
2023-05-14T12:35:05.022Z,86.5915
2023-05-14T12:36:20.656Z,86.9983
2023-05-14T12:37:07.636Z,87.1970
2023-05-14T12:38:08.572Z,87.9622
2023-05-14T12:39:09.561Z,88.4417
2023-05-14T12:40:10.507Z,88.3832
2023-05-14T12:41:11.551Z,88.7807
2023-05-14T12:42:12.996Z,88.2934
2023-05-14T12:43:13.985Z,89.3762
2023-05-14T12:44:14.984Z,89.6420
2023-05-14T12:45:15.922Z,89.5528
2023-05-14T12:46:16.905Z,89.4617
2023-05-14T12:47:18.045Z,89.3456
2023-05-14T12:48:19.089Z,88.5301
2023-05-14T12:49:20.077Z,88.3649
2023-05-14T12:50:21.173Z,88.1703
2023-05-14T12:51:22.131Z,87.8330
2023-05-14T12:52:36.903Z,87.8056
2023-05-14T12:54:25.095Z,87.9119
2023-05-14T12:57:27.794Z,88.3215
2023-05-14T12:59:29.614Z,87.9454
2023-05-14T13:00:30.568Z,88.0658
2023-05-14T13:01:31.628Z,87.9039
2023-05-14T13:02:32.705Z,87.6858
2023-05-14T13:03:33.674Z,86.4855
2023-05-14T13:04:35.020Z,85.6801
2023-05-14T13:05:35.978Z,85.8931
2023-05-14T13:06:36.990Z,86.2505
2023-05-14T13:07:38.003Z,85.6106
2023-05-14T13:08:39.689Z,85.9286
2023-05-14T13:09:39.002Z,86.2630
2023-05-14T13:10:40.059Z,86.6113
2023-05-14T13:11:41.035Z,86.2351
2023-05-14T13:12:41.975Z,85.7753
2023-05-14T13:13:42.946Z,84.0541
2023-05-14T13:14:43.877Z,82.0334
2023-05-14T13:16:45.630Z,83.0201
2023-05-14T13:17:46.659Z,82.5509
2023-05-14T13:18:47.634Z,83.5386
2023-05-14T13:19:48.627Z,84.4685
2023-05-14T13:21:50.429Z,84.1917
2023-05-14T13:22:51.378Z,84.7382
2023-05-14T13:23:52.368Z,83.3379
2023-05-14T13:24:53.368Z,83.8394
2023-05-14T13:25:54.348Z,84.0392
2023-05-14T13:26:55.287Z,84.2971
2023-05-14T13:27:56.259Z,82.9472
2023-05-14T13:28:57.228Z,82.2960
2023-05-14T13:29:58.864Z,82.7208
2023-05-14T13:31:00.202Z,82.7620
2023-05-14T13:32:01.158Z,81.9153
2023-05-14T13:33:02.183Z,82.6198
2023-05-14T13:35:04.650Z,80.9649
2023-05-14T13:36:06.274Z,78.6907
2023-05-14T13:37:07.270Z,80.9615
2023-05-14T13:39:09.034Z,81.1518
2023-05-14T13:40:09.991Z,81.0386
2023-05-14T13:42:12.735Z,80.6470
2023-05-14T13:43:14.358Z,80.5378
2023-05-14T13:44:15.296Z,79.0765
2023-05-14T13:45:16.913Z,79.3745
2023-05-14T13:46:17.871Z,77.8406
2023-05-14T13:47:18.835Z,78.2451
2023-05-14T13:48:19.765Z,77.7917
2023-05-14T13:49:20.729Z,77.7054
2023-05-14T13:50:21.663Z,76.8686
2023-05-14T13:51:22.624Z,77.6380
2023-05-14T13:52:23.552Z,79.4529
2023-05-14T13:54:26.080Z,80.3082
2023-05-14T13:55:27.719Z,79.5861
2023-05-14T13:58:31.354Z,76.3031
2023-05-14T13:59:32.268Z,74.2702
2023-05-14T14:00:33.164Z,73.6601
2023-05-14T14:01:34.710Z,74.7698